Time;durP1;ratioP1;P1;durP2;ratioP2;P2;SDS_P1;SDS_P2;PMS_P1;PMS_P2;Temp;Humidity;BMP_temperature;BMP_pressure;BME280_temperature;BME280_humidity;BME280_pressure;Samples;Min_cycle;Max_cycle;Signal;HPM_P1;HPM_P2
2023/12/26 00:00:06;;;;;;;14.05;1.67;;;7.00;99.90;;;;;;5035659;28;20143;-90
2023/12/26 00:02:31;;;;;;;9.27;1.02;;;7.00;99.90;;;;;;5033831;28;20428;-91
2023/12/26 00:04:57;;;;;;;12.38;1.30;;;7.00;99.90;;;;;;5034187;28;20084;-92
2023/12/26 00:07:23;;;;;;;14.40;2.60;;;7.10;99.90;;;;;;5033774;28;20489;-91
2023/12/26 00:09:49;;;;;;;7.90;1.50;;;7.10;99.90;;;;;;5034730;28;20017;-92
2023/12/26 00:12:15;;;;;;;11.50;1.80;;;7.00;99.90;;;;;;5033748;28;20488;-91
2023/12/26 00:14:41;;;;;;;12.75;1.20;;;7.10;99.90;;;;;;5035088;28;20033;-91
2023/12/26 00:17:06;;;;;;;10.20;1.92;;;7.10;99.90;;;;;;5034830;28;20108;-90
2023/12/26 00:19:32;;;;;;;9.98;1.75;;;7.10;99.90;;;;;;5033744;28;20076;-91
2023/12/26 00:21:58;;;;;;;12.35;1.40;;;7.10;99.90;;;;;;5034739;28;20058;-91
2023/12/26 00:24:24;;;;;;;11.98;2.08;;;7.10;99.90;;;;;;5033682;28;20463;-92
2023/12/26 00:26:49;;;;;;;10.35;1.33;;;7.10;99.90;;;;;;5032968;28;20559;-91
2023/12/26 00:29:15;;;;;;;10.60;0.98;;;7.20;99.90;;;;;;5033657;28;20030;-91
2023/12/26 00:31:41;;;;;;;12.27;1.35;;;7.20;99.90;;;;;;5033386;28;20033;-91
2023/12/26 00:34:07;;;;;;;13.88;1.77;;;7.20;99.90;;;;;;5032849;28;20405;-90
2023/12/26 00:36:33;;;;;;;19.48;1.70;;;7.20;99.90;;;;;;5034240;28;20388;-91
2023/12/26 00:38:59;;;;;;;10.73;1.65;;;7.20;99.90;;;;;;5033042;28;20074;-91
2023/12/26 00:41:25;;;;;;;13.98;2.42;;;7.20;99.90;;;;;;5034789;28;20029;-88
2023/12/26 00:43:54;;;;;;;18.27;1.65;;;7.20;99.90;;;;;;5033557;28;20069;-92
2023/12/26 00:46:20;;;;;;;7.80;1.70;;;7.20;99.90;;;;;;5034467;28;20052;-91
2023/12/26 00:48:46;;;;;;;12.27;1.63;;;7.20;99.90;;;;;;5034242;28;20021;-91
2023/12/26 00:51:11;;;;;;;10.38;1.85;;;7.20;99.90;;;;;;5032791;28;20032;-91
2023/12/26 00:53:37;;;;;;;7.05;1.98;;;7.20;99.90;;;;;;5034104;28;20092;-91
2023/12/26 00:56:03;;;;;;;11.52;1.25;;;7.20;99.90;;;;;;5034132;28;20034;-91
2023/12/26 00:58:29;;;;;;;11.88;1.20;;;7.20;99.90;;;;;;5033186;28;20017;-91
2023/12/26 01:00:55;;;;;;;11.00;2.17;;;7.20;99.90;;;;;;5033332;28;20040;-91
2023/12/26 01:03:22;;;;;;;9.30;1.45;;;7.20;99.90;;;;;;5035956;28;20542;-91
2023/12/26 01:05:51;;;;;;;13.85;3.50;;;7.20;99.90;;;;;;5034261;28;20500;-91
2023/12/26 01:08:18;;;;;;;11.25;1.20;;;7.20;99.90;;;;;;5036220;28;20029;-91
2023/12/26 01:10:44;;;;;;;9.32;1.92;;;7.20;99.90;;;;;;5037109;28;20033;-89
2023/12/26 01:13:10;;;;;;;13.85;2.28;;;7.20;99.90;;;;;;5037972;28;20033;-90
2023/12/26 01:15:36;;;;;;;11.10;1.77;;;7.20;99.90;;;;;;5034959;28;20033;-91
2023/12/26 01:18:02;;;;;;;10.18;1.20;;;7.20;99.90;;;;;;5033532;28;20388;-92
2023/12/26 01:20:28;;;;;;;6.63;1.35;;;7.20;99.90;;;;;;5032462;28;20021;-91
2023/12/26 01:22:54;;;;;;;12.45;1.60;;;7.20;99.90;;;;;;5032835;28;20045;-91
2023/12/26 01:25:19;;;;;;;13.73;1.80;;;7.20;99.90;;;;;;5033669;28;20036;-91
2023/12/26 01:27:45;;;;;;;11.98;1.80;;;7.20;99.90;;;;;;5032478;28;20131;-91
2023/12/26 01:30:11;;;;;;;15.02;1.65;;;7.20;99.90;;;;;;5032468;28;20029;-90
2023/12/26 01:32:37;;;;;;;7.65;1.40;;;7.20;99.90;;;;;;5033714;28;20063;-91
2023/12/26 01:35:02;;;;;;;11.38;2.13;;;7.20;99.90;;;;;;5032501;28;20104;-90
2023/12/26 01:37:28;;;;;;;17.13;2.47;;;7.20;99.90;;;;;;5032607;28;20029;-91
2023/12/26 01:39:54;;;;;;;7.70;1.20;;;7.20;99.90;;;;;;5033560;28;20022;-90
2023/12/26 01:42:20;;;;;;;11.98;2.55;;;7.10;99.90;;;;;;5032549;28;20026;-91
2023/12/26 01:44:45;;;;;;;9.18;1.20;;;7.10;99.90;;;;;;5035953;28;20030;-90
2023/12/26 01:47:12;;;;;;;12.73;2.05;;;7.10;99.90;;;;;;5041527;28;20034;-91
2023/12/26 01:49:39;;;;;;;8.18;1.27;;;7.10;99.90;;;;;;5040846;28;20017;-90
2023/12/26 01:52:08;;;;;;;8.80;1.30;;;7.10;99.90;;;;;;5033190;28;20025;-91
2023/12/26 01:54:37;;;;;;;15.93;2.47;;;7.10;99.90;;;;;;5034364;28;20022;-90
2023/12/26 01:57:06;;;;;;;9.80;1.77;;;7.00;99.90;;;;;;5032731;28;20368;-91
2023/12/26 01:59:36;;;;;;;11.70;1.35;;;7.00;99.90;;;;;;5032675;28;20021;-91
2023/12/26 02:02:04;;;;;;;10.73;1.63;;;7.00;99.90;;;;;;5035056;28;20025;-91
2023/12/26 02:04:30;;;;;;;9.95;1.42;;;7.00;99.90;;;;;;5032361;28;20034;-92
2023/12/26 02:06:59;;;;;;;16.25;2.67;;;7.00;99.90;;;;;;5033753;28;20033;-92
2023/12/26 02:09:26;;;;;;;10.23;1.30;;;6.90;99.90;;;;;;5034001;28;20017;-91
2023/12/26 02:11:52;;;;;;;10.68;1.35;;;6.90;99.90;;;;;;5033790;28;20080;-91
2023/12/26 02:14:19;;;;;;;9.60;1.60;;;6.90;99.90;;;;;;5032962;28;20017;-91
2023/12/26 02:16:47;;;;;;;14.63;1.35;;;6.90;99.90;;;;;;5032501;28;20030;-86
2023/12/26 02:19:14;;;;;;;13.27;2.13;;;6.80;99.90;;;;;;5037002;28;20384;-90
2023/12/26 02:21:40;;;;;;;10.95;1.50;;;6.80;99.90;;;;;;5036732;28;20091;-91
2023/12/26 02:24:06;;;;;;;15.13;2.40;;;6.80;99.90;;;;;;5036172;28;20112;-90
2023/12/26 02:26:35;;;;;;;13.50;1.63;;;6.70;99.90;;;;;;5037479;28;20037;-91
2023/12/26 02:29:02;;;;;;;11.25;1.70;;;6.70;99.90;;;;;;5036208;28;20032;-91
2023/12/26 02:31:28;;;;;;;5.68;1.20;;;6.70;99.90;;;;;;5035413;28;20385;-92
2023/12/26 02:33:54;;;;;;;8.07;1.33;;;6.70;99.90;;;;;;5037352;28;20041;-90
2023/12/26 02:36:20;;;;;;;15.75;1.77;;;6.70;99.90;;;;;;5036114;28;20022;-91
2023/12/26 02:38:46;;;;;;;13.80;2.00;;;6.70;99.90;;;;;;5037120;28;20026;-90
2023/12/26 02:41:12;;;;;;;9.15;1.52;;;6.60;99.90;;;;;;5036440;28;20116;-90
2023/12/26 02:43:38;;;;;;;8.02;1.83;;;6.60;99.90;;;;;;5036412;28;20083;-90
2023/12/26 02:46:03;;;;;;;11.38;1.33;;;6.60;99.90;;;;;;5045209;28;20029;-89
2023/12/26 02:48:29;;;;;;;21.25;2.75;;;6.60;99.90;;;;;;5050198;28;20028;-90
2023/12/26 02:50:55;;;;;;;11.50;2.08;;;6.70;99.90;;;;;;5047578;28;20030;-89
2023/12/26 02:53:21;;;;;;;6.95;1.20;;;6.70;99.90;;;;;;5050305;28;20080;-91
2023/12/26 02:55:52;;;;;;;16.02;1.33;;;6.70;99.90;;;;;;5050621;28;20029;-88
2023/12/26 02:58:19;;;;;;;8.18;1.80;;;6.70;99.90;;;;;;5050145;28;20119;-90
2023/12/26 03:00:45;;;;;;;11.85;1.50;;;6.70;99.90;;;;;;5046691;28;20026;-90
2023/12/26 03:03:11;;;;;;;8.32;1.45;;;6.70;99.90;;;;;;5047287;28;20025;-91
2023/12/26 03:05:37;;;;;;;8.27;1.40;;;6.70;99.90;;;;;;5046663;28;20037;-89
2023/12/26 03:08:03;;;;;;;11.80;1.60;;;6.70;99.90;;;;;;5041584;28;20435;-89
2023/12/26 03:10:28;;;;;;;22.15;1.50;;;6.70;99.90;;;;;;5043429;28;20038;-90
2023/12/26 03:12:54;;;;;;;13.73;1.45;;;6.70;99.90;;;;;;5043352;28;20021;-90
2023/12/26 03:15:20;;;;;;;7.38;1.17;;;6.70;99.90;;;;;;5041187;28;20022;-90
2023/12/26 03:17:46;;;;;;;13.05;2.20;;;6.70;99.90;;;;;;5041029;28;20040;-89
2023/12/26 03:20:11;;;;;;;9.30;1.60;;;6.70;99.90;;;;;;5037581;28;20021;-89
2023/12/26 03:22:39;;;;;;;12.07;1.48;;;6.70;99.90;;;;;;5037308;28;20513;-90
2023/12/26 03:25:08;;;;;;;4.97;1.13;;;6.70;99.90;;;;;;5036121;28;20037;-89
2023/12/26 03:27:34;;;;;;;6.97;1.30;;;6.70;99.90;;;;;;5035581;28;20033;-91
2023/12/26 03:30:00;;;;;;;7.97;1.20;;;6.70;99.90;;;;;;5035169;28;20029;-90
2023/12/26 03:32:25;;;;;;;8.48;1.40;;;6.70;99.90;;;;;;5037491;28;20060;-90
2023/12/26 03:34:51;;;;;;;9.10;1.55;;;6.70;99.90;;;;;;5040534;28;20036;-91
2023/12/26 03:37:17;;;;;;;13.88;1.92;;;6.70;99.90;;;;;;5037712;28;20048;-91
2023/12/26 03:39:42;;;;;;;13.27;1.83;;;6.70;99.90;;;;;;5039065;28;20029;-92
2023/12/26 03:42:08;;;;;;;11.45;1.20;;;6.80;99.90;;;;;;5043087;28;20144;-90
2023/12/26 03:44:35;;;;;;;6.72;1.48;;;6.80;99.90;;;;;;5043847;28;20130;-89
2023/12/26 03:47:00;;;;;;;12.48;1.15;;;6.70;99.90;;;;;;5039180;28;20500;-90
2023/12/26 03:49:26;;;;;;;11.88;1.77;;;6.80;99.90;;;;;;5039084;28;20021;-92
2023/12/26 03:51:52;;;;;;;19.27;1.55;;;6.70;99.90;;;;;;5039953;28;20485;-92
2023/12/26 03:54:19;;;;;;;19.75;2.53;;;6.70;99.90;;;;;;5039125;28;20033;-91
2023/12/26 03:56:45;;;;;;;9.27;1.50;;;6.70;99.90;;;;;;5036834;28;20018;-92
2023/12/26 03:59:11;;;;;;;12.50;1.83;;;6.60;99.90;;;;;;5034781;28;20040;-92
2023/12/26 04:01:37;;;;;;;8.80;1.38;;;6.60;99.90;;;;;;5034624;28;20032;-91
2023/12/26 04:04:03;;;;;;;8.35;1.38;;;6.50;99.90;;;;;;5034294;28;20026;-92
2023/12/26 04:06:29;;;;;;;11.00;1.33;;;6.50;99.90;;;;;;5035195;28;20034;-90
2023/12/26 04:08:54;;;;;;;9.32;1.90;;;6.50;99.90;;;;;;5035141;28;20079;-92
2023/12/26 04:11:20;;;;;;;10.35;1.88;;;6.50;99.90;;;;;;5034163;28;20029;-92
2023/12/26 04:13:46;;;;;;;8.50;1.52;;;6.40;99.90;;;;;;5034908;28;20025;-92
2023/12/26 04:16:11;;;;;;;13.73;2.05;;;6.40;99.90;;;;;;5034044;28;20545;-91
2023/12/26 04:18:37;;;;;;;9.50;1.63;;;6.40;99.90;;;;;;5033964;28;20030;-92
2023/12/26 04:21:03;;;;;;;8.38;1.17;;;6.40;99.90;;;;;;5033804;28;20057;-89
2023/12/26 04:23:29;;;;;;;9.25;1.95;;;6.40;99.90;;;;;;5033788;28;20060;-91
2023/12/26 04:25:54;;;;;;;9.98;1.88;;;6.40;99.90;;;;;;5033756;28;20028;-89
2023/12/26 04:28:20;;;;;;;9.43;2.22;;;6.40;99.90;;;;;;5033541;28;20040;-91
2023/12/26 04:30:47;;;;;;;11.77;1.58;;;6.40;99.90;;;;;;5034863;28;20105;-91
2023/12/26 04:33:13;;;;;;;11.48;1.70;;;6.40;99.90;;;;;;5034326;28;20476;-91
2023/12/26 04:35:38;;;;;;;12.63;1.30;;;6.40;99.90;;;;;;5034785;28;20039;-91
2023/12/26 04:38:04;;;;;;;14.32;1.38;;;6.40;99.90;;;;;;5033613;28;20018;-91
2023/12/26 04:40:30;;;;;;;6.00;1.02;;;6.40;99.90;;;;;;5033828;28;20021;-92
2023/12/26 04:43:00;;;;;;;4.28;0.93;;;6.40;99.90;;;;;;5033990;28;20029;-91
2023/12/26 04:45:26;;;;;;;14.68;2.15;;;6.40;99.90;;;;;;5034424;28;20029;-91
2023/12/26 04:47:52;;;;;;;8.15;1.52;;;6.40;99.90;;;;;;5033951;28;20439;-91
2023/12/26 04:50:17;;;;;;;12.63;1.70;;;6.40;99.90;;;;;;5033216;28;20029;-92
2023/12/26 04:52:43;;;;;;;11.45;2.17;;;6.40;99.90;;;;;;5033083;28;20025;-90
2023/12/26 04:55:09;;;;;;;10.82;2.10;;;6.40;99.90;;;;;;5033422;28;20033;-91
2023/12/26 04:57:35;;;;;;;8.75;1.10;;;6.40;99.90;;;;;;5034028;28;20025;-91
2023/12/26 05:00:01;;;;;;;12.93;2.53;;;6.50;99.90;;;;;;5032434;28;20034;-90
2023/12/26 05:02:27;;;;;;;12.13;2.05;;;6.40;99.90;;;;;;5032963;28;20112;-90
2023/12/26 05:04:52;;;;;;;12.80;1.67;;;6.40;99.90;;;;;;5034173;28;20030;-91
2023/12/26 05:07:18;;;;;;;8.95;1.40;;;6.40;99.90;;;;;;5035551;28;20041;-91
2023/12/26 05:09:44;;;;;;;13.48;1.83;;;6.40;99.90;;;;;;5033965;28;20663;-91
2023/12/26 05:12:09;;;;;;;15.43;1.52;;;6.40;99.90;;;;;;5032635;28;20021;-91
2023/12/26 05:14:35;;;;;;;12.30;2.08;;;6.40;99.90;;;;;;5033756;28;20459;-91
2023/12/26 05:17:01;;;;;;;8.90;2.15;;;6.40;99.90;;;;;;5033020;28;20074;-90
2023/12/26 05:19:27;;;;;;;10.43;1.25;;;6.40;99.90;;;;;;5033491;28;20022;-91
2023/12/26 05:21:52;;;;;;;7.15;1.80;;;6.40;99.90;;;;;;5033449;28;20029;-90
2023/12/26 05:24:18;;;;;;;8.00;1.17;;;6.40;99.90;;;;;;5035523;28;20029;-93
2023/12/26 05:26:44;;;;;;;7.97;2.60;;;6.40;99.90;;;;;;5036050;28;20037;-91
2023/12/26 05:29:10;;;;;;;11.43;1.33;;;6.40;99.90;;;;;;5036797;28;20040;-90
2023/12/26 05:31:38;;;;;;;9.27;1.30;;;6.30;99.90;;;;;;5036565;28;20055;-90
2023/12/26 05:34:07;;;;;;;8.18;1.80;;;6.30;99.90;;;;;;5037724;28;20029;-90
2023/12/26 05:36:33;;;;;;;14.02;1.73;;;6.40;99.90;;;;;;5035701;28;20551;-90
2023/12/26 05:38:59;;;;;;;6.97;0.98;;;6.40;99.90;;;;;;5036789;28;20067;-89
2023/12/26 05:41:25;;;;;;;2.58;0.80;;;6.40;99.90;;;;;;5036929;28;20061;-90
2023/12/26 05:43:51;;;;;;;12.27;1.33;;;6.40;99.90;;;;;;5034470;28;20087;-89
2023/12/26 05:46:18;;;;;;;10.20;1.00;;;6.40;99.90;;;;;;5033561;28;20107;-90
2023/12/26 05:48:44;;;;;;;8.82;1.05;;;6.40;99.90;;;;;;5032490;28;20017;-90
2023/12/26 05:51:10;;;;;;;12.07;1.10;;;6.30;99.90;;;;;;5033793;28;20097;-90
2023/12/26 05:53:36;;;;;;;9.18;1.35;;;6.30;99.90;;;;;;5035340;28;20018;-90
2023/12/26 05:56:02;;;;;;;8.95;0.98;;;6.30;99.90;;;;;;5036533;28;20030;-89
2023/12/26 05:58:28;;;;;;;13.98;1.50;;;6.30;99.90;;;;;;5037280;28;20025;-89
2023/12/26 06:00:54;;;;;;;10.82;1.48;;;6.30;99.90;;;;;;5036078;28;20123;-89
2023/12/26 06:03:20;;;;;;;14.57;1.95;;;6.30;99.90;;;;;;5036098;28;20153;-90
2023/12/26 06:05:47;;;;;;;11.32;2.45;;;6.30;99.90;;;;;;5037090;28;20025;-90
2023/12/26 06:08:14;;;;;;;13.63;2.20;;;6.30;99.90;;;;;;5037059;28;20033;-89
2023/12/26 06:10:39;;;;;;;3.65;1.10;;;6.40;99.90;;;;;;5035955;28;20044;-90
2023/12/26 06:13:05;;;;;;;5.97;0.80;;;6.40;99.90;;;;;;5037303;28;20508;-90
2023/12/26 06:15:31;;;;;;;12.35;1.48;;;6.40;99.90;;;;;;5035820;28;20087;-89
2023/12/26 06:17:59;;;;;;;6.75;1.27;;;6.40;99.90;;;;;;5039490;28;20371;-90
2023/12/26 06:20:27;;;;;;;7.65;1.10;;;6.40;99.90;;;;;;5038501;28;20487;-89
2023/12/26 06:22:53;;;;;;;10.38;1.48;;;6.40;99.90;;;;;;5038413;28;20068;-89
2023/12/26 06:25:19;;;;;;;7.82;0.98;;;6.40;99.90;;;;;;5038503;28;20025;-89
2023/12/26 06:27:45;;;;;;;8.30;1.13;;;6.40;99.90;;;;;;5036440;28;20112;-89
2023/12/26 06:30:11;;;;;;;10.85;1.25;;;6.40;99.90;;;;;;5035344;28;20060;-89
2023/12/26 06:32:37;;;;;;;4.45;0.57;;;6.40;99.90;;;;;;5035305;28;20072;-89
2023/12/26 06:35:03;;;;;;;7.75;0.77;;;6.40;99.90;;;;;;5035523;28;20025;-89
2023/12/26 06:37:29;;;;;;;9.32;1.35;;;6.40;99.90;;;;;;5036946;28;20156;-89
2023/12/26 06:39:54;;;;;;;9.48;0.75;;;6.40;99.90;;;;;;5036294;28;20033;-89
2023/12/26 06:42:21;;;;;;;11.70;1.30;;;6.40;99.90;;;;;;5036585;28;20481;-90
2023/12/26 06:44:46;;;;;;;3.55;0.98;;;6.40;99.90;;;;;;5036259;28;20048;-89
2023/12/26 06:47:12;;;;;;;7.40;0.93;;;6.30;99.90;;;;;;5035188;28;20034;-89
2023/12/26 06:49:45;;;;;;;6.43;0.98;;;6.30;99.90;;;;;;5036338;28;20511;-88
2023/12/26 06:52:14;;;;;;;6.95;1.38;;;6.20;99.90;;;;;;5036341;28;20029;-90
2023/12/26 06:54:43;;;;;;;6.70;1.00;;;6.20;99.90;;;;;;5036373;28;20021;-89
2023/12/26 06:57:15;;;;;;;8.23;1.08;;;6.10;99.90;;;;;;5035877;28;20484;-89
2023/12/26 06:59:43;;;;;;;6.35;0.80;;;6.10;99.90;;;;;;5036449;28;20033;-89
2023/12/26 07:02:09;;;;;;;10.90;0.93;;;6.10;99.90;;;;;;5034990;28;20116;-89
2023/12/26 07:04:34;;;;;;;7.30;1.33;;;6.10;99.90;;;;;;5034760;28;20132;-89
2023/12/26 07:07:00;;;;;;;8.02;1.27;;;6.00;99.90;;;;;;5035223;28;20037;-90
2023/12/26 07:09:26;;;;;;;6.30;1.10;;;6.00;99.90;;;;;;5036192;28;20083;-90
2023/12/26 07:11:51;;;;;;;11.82;1.20;;;6.00;99.90;;;;;;5036643;28;20103;-90
2023/12/26 07:14:18;;;;;;;7.30;1.50;;;5.90;99.90;;;;;;5036301;28;20425;-90
2023/12/26 07:16:44;;;;;;;7.22;1.20;;;5.90;99.90;;;;;;5035975;28;20030;-90
2023/12/26 07:19:09;;;;;;;8.85;1.20;;;5.90;99.90;;;;;;5035043;28;20049;-89
2023/12/26 07:21:36;;;;;;;10.82;1.20;;;5.90;99.90;;;;;;5035034;28;20033;-90
2023/12/26 07:24:02;;;;;;;11.88;1.40;;;5.90;99.90;;;;;;5035154;28;20083;-90
2023/12/26 07:26:27;;;;;;;16.13;1.27;;;5.90;99.90;;;;;;5035766;28;20481;-89
2023/12/26 07:28:53;;;;;;;9.15;1.23;;;5.90;99.90;;;;;;5034349;28;20053;-89
2023/12/26 07:31:28;;;;;;;14.10;1.30;;;5.90;99.90;;;;;;5034267;28;20060;-89
2023/12/26 07:33:54;;;;;;;12.82;1.60;;;5.80;99.90;;;;;;5035911;28;20030;-89
2023/12/26 07:36:20;;;;;;;7.38;1.00;;;5.80;99.90;;;;;;5035910;28;20028;-90
2023/12/26 07:38:46;;;;;;;8.55;1.42;;;5.80;99.90;;;;;;5034402;28;20033;-90
2023/12/26 07:41:11;;;;;;;12.73;1.40;;;5.80;99.90;;;;;;5034795;28;20121;-88
2023/12/26 07:43:37;;;;;;;13.27;1.27;;;5.80;99.90;;;;;;5035357;28;20527;-89
2023/12/26 07:46:04;;;;;;;11.10;1.02;;;5.80;99.90;;;;;;5033984;28;20082;-90
2023/12/26 07:48:30;;;;;;;15.43;1.60;;;5.70;99.90;;;;;;5035305;28;20544;-90
2023/12/26 07:50:56;;;;;;;10.40;1.52;;;5.70;99.90;;;;;;5033870;28;20164;-90
2023/12/26 07:53:21;;;;;;;9.32;1.40;;;5.70;99.90;;;;;;5034079;28;20022;-90
2023/12/26 07:55:47;;;;;;;11.38;1.35;;;5.60;99.90;;;;;;5035208;28;20094;-90
2023/12/26 07:58:13;;;;;;;15.48;1.50;;;5.60;99.90;;;;;;5034909;28;20021;-90
2023/12/26 08:00:38;;;;;;;14.63;1.33;;;5.50;99.90;;;;;;5033811;28;20025;-90
2023/12/26 08:03:04;;;;;;;10.07;1.25;;;5.50;99.90;;;;;;5034145;28;20068;-90
2023/12/26 08:05:30;;;;;;;10.55;1.15;;;5.40;99.90;;;;;;5033658;28;20025;-90
2023/12/26 08:07:56;;;;;;;8.55;1.35;;;5.40;99.90;;;;;;5033837;28;20460;-90
2023/12/26 08:10:25;;;;;;;8.38;1.55;;;5.40;99.90;;;;;;5035067;28;20088;-90
2023/12/26 08:12:51;;;;;;;19.08;2.38;;;5.40;99.90;;;;;;5033657;28;20472;-90
2023/12/26 08:15:17;;;;;;;11.77;1.05;;;5.30;99.90;;;;;;5033955;28;20018;-90
2023/12/26 08:17:43;;;;;;;15.48;1.17;;;5.30;99.90;;;;;;5033681;28;20028;-90
2023/12/26 08:20:09;;;;;;;7.50;1.35;;;5.20;99.90;;;;;;5033683;28;20124;-90
2023/12/26 08:22:35;;;;;;;15.18;1.83;;;5.20;99.90;;;;;;5034795;28;20504;-91
2023/12/26 08:25:01;;;;;;;4.60;1.10;;;5.10;99.90;;;;;;5033554;28;20029;-90
2023/12/26 08:27:27;;;;;;;9.98;2.03;;;5.20;99.90;;;;;;5033766;28;20404;-90
2023/12/26 08:29:53;;;;;;;11.20;1.48;;;5.10;99.90;;;;;;5033395;28;20029;-90
2023/12/26 08:32:18;;;;;;;8.38;1.40;;;5.10;99.90;;;;;;5033230;28;20041;-90
2023/12/26 08:34:44;;;;;;;8.68;1.25;;;5.10;99.90;;;;;;5033832;28;20064;-90
2023/12/26 08:37:13;;;;;;;9.00;1.30;;;5.10;99.90;;;;;;5033568;28;20550;-91
2023/12/26 08:39:39;;;;;;;9.23;1.27;;;5.10;99.90;;;;;;5034759;28;20030;-90
2023/12/26 08:42:06;;;;;;;10.55;1.20;;;5.00;99.90;;;;;;5034499;28;20036;-90
2023/12/26 08:44:32;;;;;;;10.43;2.83;;;5.00;99.90;;;;;;5035002;28;20025;-91
2023/12/26 08:47:02;;;;;;;9.80;1.48;;;5.00;99.90;;;;;;5037095;28;20037;-90
2023/12/26 08:49:28;;;;;;;7.55;1.60;;;5.00;99.90;;;;;;5044098;28;20545;-90
2023/12/26 08:51:53;;;;;;;14.23;1.55;;;5.00;99.90;;;;;;5050142;28;20053;-90
2023/12/26 08:54:20;;;;;;;19.33;3.03;;;4.90;99.90;;;;;;5048928;28;20030;-90
2023/12/26 08:56:46;;;;;;;8.52;2.33;;;4.90;99.90;;;;;;5044831;28;20021;-90
2023/12/26 08:59:12;;;;;;;11.40;3.63;;;4.90;99.90;;;;;;5056303;28;20056;-88
2023/12/26 09:01:38;;;;;;;4.97;1.35;;;4.90;99.90;;;;;;5046160;28;20033;-91
2023/12/26 09:04:04;;;;;;;12.82;3.88;;;4.90;99.90;;;;;;5038027;28;20128;-90
2023/12/26 09:06:30;;;;;;;5.65;1.73;;;4.90;99.90;;;;;;5034524;28;20040;-90
2023/12/26 09:08:56;;;;;;;8.75;1.45;;;4.80;99.90;;;;;;5049004;28;20017;-90
2023/12/26 09:11:22;;;;;;;15.15;1.50;;;4.80;99.90;;;;;;5047828;28;20039;-90
2023/12/26 09:13:47;;;;;;;15.80;2.08;;;4.80;99.90;;;;;;5049372;28;20025;-90
2023/12/26 09:16:13;;;;;;;24.30;4.47;;;4.80;99.90;;;;;;5050018;28;20038;-91
2023/12/26 09:18:39;;;;;;;5.15;1.27;;;4.80;99.90;;;;;;5051361;28;20029;-90
2023/12/26 09:21:05;;;;;;;9.25;1.38;;;4.90;99.90;;;;;;5051441;28;20052;-91
2023/12/26 09:23:31;;;;;;;6.50;1.27;;;4.90;99.90;;;;;;5045681;28;20048;-92
2023/12/26 09:25:57;;;;;;;8.13;1.70;;;4.90;99.90;;;;;;5042547;28;20075;-87
2023/12/26 09:28:23;;;;;;;8.70;1.70;;;4.90;99.90;;;;;;5045421;28;20033;-89
2023/12/26 09:30:48;;;;;;;9.35;2.20;;;4.90;99.90;;;;;;5048107;28;20028;-88
2023/12/26 09:33:14;;;;;;;8.45;1.98;;;4.90;99.90;;;;;;5046895;28;20056;-91
2023/12/26 09:35:40;;;;;;;8.68;2.17;;;5.00;99.90;;;;;;5043363;28;20029;-89
2023/12/26 09:38:06;;;;;;;14.38;3.00;;;5.00;99.90;;;;;;5043629;28;20045;-89
2023/12/26 09:40:32;;;;;;;8.38;1.88;;;5.00;99.90;;;;;;5043013;28;20041;-89
2023/12/26 09:43:03;;;;;;;12.73;2.55;;;5.00;99.90;;;;;;5039518;28;20033;-90
2023/12/26 09:45:30;;;;;;;9.73;2.30;;;5.10;99.90;;;;;;5037803;28;20033;-90
2023/12/26 09:47:57;;;;;;;8.20;1.90;;;5.10;99.90;;;;;;5038077;28;20018;-90
2023/12/26 09:50:22;;;;;;;9.27;2.17;;;5.20;99.90;;;;;;5038037;28;20026;-89
2023/12/26 09:52:53;;;;;;;9.18;2.65;;;5.30;99.90;;;;;;5038492;28;20449;-89
2023/12/26 09:55:21;;;;;;;13.63;4.25;;;5.40;99.90;;;;;;5039791;28;20083;-89
2023/12/26 09:57:47;;;;;;;10.63;2.00;;;5.60;99.90;;;;;;5037294;28;20040;-88
2023/12/26 10:00:14;;;;;;;15.23;4.47;;;5.80;99.90;;;;;;5037387;28;20025;-90
2023/12/26 10:02:42;;;;;;;11.05;2.05;;;6.10;99.90;;;;;;5036949;28;20065;-90
2023/12/26 10:05:07;;;;;;;9.73;2.47;;;6.30;99.90;;;;;;5037649;28;20113;-91
2023/12/26 10:07:33;;;;;;;7.38;2.05;;;6.50;99.90;;;;;;5036577;28;20124;-90
2023/12/26 10:09:59;;;;;;;12.65;1.98;;;6.70;99.90;;;;;;5036742;28;20018;-90
2023/12/26 10:12:31;;;;;;;4.32;1.52;;;7.00;99.90;;;;;;5036839;28;20021;-89
2023/12/26 10:14:58;;;;;;;7.97;2.53;;;7.20;99.90;;;;;;5036230;28;20022;-89
2023/12/26 10:17:25;;;;;;;11.10;2.42;;;7.50;99.90;;;;;;5036225;28;20025;-89
2023/12/26 10:19:55;;;;;;;7.55;1.80;;;7.70;99.90;;;;;;5037513;28;20040;-90
2023/12/26 10:22:20;;;;;;;3.55;1.80;;;7.90;99.90;;;;;;5035730;28;20144;-90
2023/12/26 10:24:47;;;;;;;6.15;2.00;;;8.20;99.90;;;;;;5036233;28;20071;-90
2023/12/26 10:27:14;;;;;;;6.45;1.60;;;8.50;99.90;;;;;;5035812;28;20057;-90
2023/12/26 10:29:39;;;;;;;6.25;2.30;;;8.80;99.90;;;;;;5037062;28;20033;-89
2023/12/26 10:32:05;;;;;;;4.40;1.65;;;9.00;99.90;;;;;;5036162;28;20055;-89
2023/12/26 10:34:31;;;;;;;5.93;2.05;;;9.20;99.90;;;;;;5036816;28;20036;-90
2023/12/26 10:36:58;;;;;;;3.95;0.88;;;9.60;99.90;;;;;;5036593;28;20025;-90
2023/12/26 10:39:24;;;;;;;2.00;0.65;;;9.80;99.90;;;;;;5035516;28;20053;-90
2023/12/26 10:41:52;;;;;;;2.13;0.82;;;10.10;99.90;;;;;;5036863;28;20507;-90
2023/12/26 10:44:18;;;;;;;6.50;0.77;;;10.30;99.90;;;;;;5036566;28;20025;-90
2023/12/26 10:46:45;;;;;;;1.40;0.63;;;10.60;97.90;;;;;;5036586;28;20033;-90
2023/12/26 10:49:17;;;;;;;3.90;0.88;;;10.70;95.90;;;;;;5035435;28;20561;-90
2023/12/26 10:51:43;;;;;;;5.65;0.85;;;10.90;95.40;;;;;;5035408;28;20078;-90
2023/12/26 10:54:25;;;;;;;5.53;0.52;;;11.30;95.00;;;;;;5035893;28;20025;-91
2023/12/26 10:56:52;;;;;;;1.45;0.63;;;11.60;93.60;;;;;;5037268;28;20037;-90
2023/12/26 13:51:53;;;;;;;8.07;1.55;;;7.80;99.90;;;;;;5034274;28;20068;-90
2023/12/26 13:54:57;;;;;;;6.28;1.50;;;7.80;99.90;;;;;;5034125;28;20124;-91
2023/12/26 13:58:00;;;;;;;5.82;1.63;;;7.80;99.90;;;;;;5033634;28;20362;-92
2023/12/26 14:01:04;;;;;;;9.55;1.70;;;7.80;99.90;;;;;;5035140;28;20021;-91
2023/12/26 14:04:07;;;;;;;7.55;1.50;;;7.80;99.90;;;;;;5039995;28;20086;-91
2023/12/26 14:07:10;;;;;;;13.20;3.13;;;7.80;99.90;;;;;;5037269;28;20033;-91
2023/12/26 14:09:36;;;;;;;5.57;1.42;;;7.80;99.90;;;;;;5036880;28;20033;-90
2023/12/26 14:12:06;;;;;;;6.97;1.70;;;7.80;99.90;;;;;;5035255;28;20040;-90
2023/12/26 14:14:33;;;;;;;9.23;1.80;;;7.80;99.90;;;;;;5039893;28;20063;-90
2023/12/26 14:16:58;;;;;;;14.80;2.75;;;7.70;99.90;;;;;;5042684;28;20329;-90
2023/12/26 14:19:24;;;;;;;12.32;2.45;;;7.70;99.90;;;;;;5041688;28;20025;-90
2023/12/26 14:21:50;;;;;;;9.65;2.03;;;7.70;99.90;;;;;;5043013;28;20049;-90
2023/12/26 14:24:16;;;;;;;9.20;2.28;;;7.70;99.90;;;;;;5037987;28;20029;-91
2023/12/26 14:27:19;;;;;;;9.85;1.65;;;7.70;99.90;;;;;;5037082;28;20041;-92
2023/12/26 14:30:22;;;;;;;10.70;2.30;;;7.60;99.90;;;;;;5036789;28;20036;-91
2023/12/26 14:33:25;;;;;;;11.02;2.33;;;7.60;99.90;;;;;;5036948;28;20075;-91
2023/12/26 14:36:29;;;;;;;8.98;1.98;;;7.60;99.90;;;;;;5036553;28;20029;-91
2023/12/26 14:39:31;;;;;;;9.77;1.80;;;7.50;99.90;;;;;;5037278;28;20068;-91
2023/12/26 14:42:35;;;;;;;11.27;1.70;;;7.50;99.90;;;;;;5035599;28;20029;-91
2023/12/26 14:45:38;;;;;;;7.45;1.42;;;7.50;99.90;;;;;;5035574;28;20041;-91
2023/12/26 14:48:41;;;;;;;9.90;2.03;;;7.50;99.90;;;;;;5036680;28;20030;-90
2023/12/26 14:51:44;;;;;;;12.93;5.05;;;7.50;99.90;;;;;;5034978;28;20120;-91
2023/12/26 14:54:47;;;;;;;14.55;4.55;;;7.50;99.90;;;;;;5035498;28;20432;-91
2023/12/26 14:57:51;;;;;;;14.23;3.40;;;7.50;99.90;;;;;;5035381;28;20030;-91
2023/12/26 15:00:54;;;;;;;12.48;2.17;;;7.40;99.90;;;;;;5036544;28;20400;-91
2023/12/26 15:03:20;;;;;;;9.77;4.18;;;7.40;99.90;;;;;;5036444;28;20026;-90
2023/12/26 15:05:46;;;;;;;8.60;2.75;;;7.40;99.90;;;;;;5034877;28;20499;-91
2023/12/26 15:08:11;;;;;;;8.70;2.15;;;7.40;99.90;;;;;;5035085;28;20033;-91
2023/12/26 15:10:37;;;;;;;9.85;2.35;;;7.40;99.90;;;;;;5035277;28;20029;-91
2023/12/26 15:13:03;;;;;;;10.35;2.50;;;7.40;99.90;;;;;;5035018;28;20025;-91
2023/12/26 15:15:29;;;;;;;10.73;2.55;;;7.40;99.90;;;;;;5036428;28;20033;-91
2023/12/26 15:17:56;;;;;;;9.93;2.47;;;7.40;99.90;;;;;;5034390;28;20025;-91
2023/12/26 15:20:21;;;;;;;8.23;2.60;;;7.40;99.90;;;;;;5034786;28;20036;-91
2023/12/26 15:22:47;;;;;;;11.45;3.03;;;7.40;99.90;;;;;;5035911;28;20026;-91
2023/12/26 15:25:14;;;;;;;10.35;3.30;;;7.40;99.90;;;;;;5034804;28;20024;-91
2023/12/26 15:27:41;;;;;;;14.13;4.80;;;7.40;99.90;;;;;;5034355;28;20038;-91
2023/12/26 15:30:09;;;;;;;14.40;3.55;;;7.40;99.90;;;;;;5035725;28;20445;-91
2023/12/26 15:32:35;;;;;;;9.82;2.80;;;7.40;99.90;;;;;;5034134;28;20077;-90
2023/12/26 15:35:03;;;;;;;8.65;3.22;;;7.40;99.90;;;;;;5034478;28;20048;-91
2023/12/26 15:37:29;;;;;;;13.25;5.45;;;7.30;99.90;;;;;;5034613;28;20518;-90
2023/12/26 15:39:55;;;;;;;8.77;2.78;;;7.40;99.90;;;;;;5035892;28;20041;-91
2023/12/26 15:42:21;;;;;;;6.07;2.65;;;7.30;99.90;;;;;;5034307;28;20037;-91
2023/12/26 15:44:46;;;;;;;10.10;4.10;;;7.40;99.90;;;;;;5034556;28;20029;-90
2023/12/26 15:47:13;;;;;;;8.25;2.72;;;7.30;99.90;;;;;;5034143;28;20033;-91
2023/12/26 15:49:39;;;;;;;9.15;4.22;;;7.20;99.90;;;;;;5034578;28;20026;-91